Ext Villa del Pilar, Puerto Rico
Current Conditions -  °F | °C
As of 10:01 PM on Monday 24 Nov 2014 (Local Time) from TJNR Reporting Station
Overcast Overcast  
Wind Chill: 78°   Ceiling: 6000
Heat Index: 81°   Visibility: 10mi
Dew Point: 74°   Wind: 6mph
Humidity: 87%   Direction: 80°E
Pressure: 30.09"   Gusts: NA
Location:  18.2667°N, 65.6476°W
Report Text: TJNR 250201Z AUTO 08005KT 10SM FEW019 SCT026 OVC060 26/23 A3009 RMK AO2 T02560233 $
Loading
Personal Weather Stations






























Interactive Weather Map New forecast layout! Learn more

10-Day Weather Forecast

Advertisements
Track Severe Weather on mobile